DW5914 Anacortes WA US current weather conditions

sailwx.info

Wind from 031 at 2 knots gusting 6

Air temperature 16.1° C
Dewpoint 12.3° C

Last reported at 2020-Aug-09 17:01 UTC.
Time now 2020-Aug-09 17:43 UTC

Location: N 48°33' W 122°36'.
View on Google Maps.

See reports from other nearby stations

  
Tides and Currents Weather Stations Pressure Air Temp Water Temp Dewpoint Dewpoint Depression Visibility Wind Speed Wind Dir Waves Ship Positions
date/time (UTC)wind fromknots sea level pressurealtimeterstation pressurevisibilityair tempwater tempwave heightnotes
2020-Aug-09 17:01 031 2 gusting 6 16.1
2020-Aug-09 16:46 323 2 gusting 5 16.7
2020-Aug-09 16:30 348 0 gusting 2 16.7
2020-Aug-09 16:16 173 0 gusting 2 15.6
2020-Aug-09 16:01 173 0 gusting 2 15.0
2020-Aug-09 15:47 174 0 gusting 2 14.4
2020-Aug-09 15:30 174 0 gusting 1 13.9
2020-Aug-09 15:15 173 0 gusting 2 13.3
2020-Aug-09 15:00 171 13.3
2020-Aug-09 14:45 171 12.2
2020-Aug-09 14:30 171 12.2
2020-Aug-09 14:15 171 11.1
2020-Aug-09 14:00 171 1 gusting 2 11.1
2020-Aug-09 13:45 171 11.1
2020-Aug-09 13:30 171 0 gusting 3 11.1
2020-Aug-09 13:15 157 11.1
2020-Aug-09 13:00 157 11.1
2020-Aug-09 12:45 157 11.1
2020-Aug-09 12:30 157 11.1
2020-Aug-09 12:15 157 11.1
2020-Aug-09 12:00 157 0 gusting 2 11.1
2020-Aug-09 11:45 157 1 gusting 3 11.1
2020-Aug-09 11:30 128 11.1
2020-Aug-09 11:15 128 0 gusting 1 11.1
2020-Aug-09 11:00 128 0 gusting 2 11.1
2020-Aug-09 10:45 103 0 gusting 2 11.1
2020-Aug-09 10:31 103 0 gusting 1 11.7
2020-Aug-09 10:17 101 11.7
2020-Aug-09 10:02 103 11.7
2020-Aug-09 09:46 103 1 gusting 2 11.7
2020-Aug-09 09:31 086 11.7
2020-Aug-09 09:16 084 0 gusting 2 11.7
2020-Aug-09 09:01 164 0 gusting 2 11.7
2020-Aug-09 08:47 167 11.7
2020-Aug-09 08:31 167 0 gusting 1 12.2
2020-Aug-09 08:17 167 2 gusting 5 12.2
2020-Aug-09 08:01 175 1 gusting 3 11.7
2020-Aug-09 07:47 167 0 gusting 1 12.2
2020-Aug-09 07:31 167 12.2
2020-Aug-09 07:16 167 12.2
2020-Aug-09 07:01 167 0 gusting 1 12.8
2020-Aug-09 06:47 167 12.8
2020-Aug-09 06:30 169 0 gusting 3 12.8
2020-Aug-09 06:16 175 3 gusting 6 12.8
2020-Aug-09 06:00 188 3 gusting 6 12.8
2020-Aug-09 05:46 175 2 gusting 3 12.8
2020-Aug-09 05:31 174 2 gusting 3 13.3
2020-Aug-09 05:15 171 2 gusting 4 13.3
2020-Aug-09 05:01 183 2 gusting 4 13.3
2020-Aug-09 04:47 178 2 gusting 5 13.3
2020-Aug-09 04:30 181 3 gusting 6 13.9
2020-Aug-09 04:16 194 4 gusting 6 13.9
2020-Aug-09 04:01 182 3 gusting 6 14.4
2020-Aug-09 03:45 156 3 gusting 5 14.4
2020-Aug-09 03:30 175 2 gusting 6 15.0
2020-Aug-09 03:15 178 3 gusting 6 15.0
2020-Aug-09 03:01 151 3 gusting 6 15.6
2020-Aug-09 02:45 202 3 gusting 6 15.6
2020-Aug-09 02:30 163 4 gusting 7 16.1
2020-Aug-09 02:16 248 0 gusting 4 17.2
2020-Aug-09 02:00 221 2 gusting 5 17.8
2020-Aug-09 01:45 202 2 gusting 4 18.9
2020-Aug-09 01:30 248 1 gusting 5 18.9
2020-Aug-09 01:15 220 0 gusting 4 18.9
2020-Aug-09 01:00 323 0 gusting 3 18.3
2020-Aug-09 00:45 026 0 gusting 3 17.2
2020-Aug-09 00:30 343 1 gusting 4 17.2
2020-Aug-09 00:15 318 1 gusting 3 17.2
2020-Aug-09 00:00 039 1 gusting 5 17.2
2020-Aug-08 23:45 051 1 gusting 5 17.8
2020-Aug-08 23:30 049 1 gusting 5 17.8
2020-Aug-08 23:15 013 2 gusting 6 17.8
2020-Aug-08 23:00 035 2 gusting 5 17.8
2020-Aug-08 22:45 027 2 gusting 5 17.2
2020-Aug-08 22:30 019 1 gusting 4 17.2
2020-Aug-08 22:15 329 2 gusting 5 17.2
2020-Aug-08 22:00 009 1 gusting 6 17.2
2020-Aug-08 21:45 275 2 gusting 5 17.2
2020-Aug-08 21:30 297 2 gusting 5 17.2
2020-Aug-08 21:15 327 2 gusting 5 17.2
2020-Aug-08 21:00 033 2 gusting 6 16.7
2020-Aug-08 20:48 313 2 gusting 4 17.2
2020-Aug-08 20:31 005 3 gusting 5 16.7
2020-Aug-08 20:16 343 2 gusting 5 17.2
2020-Aug-08 20:01 015 3 gusting 6 16.1
2020-Aug-08 19:46 300 0 gusting 5 15.6
2020-Aug-08 19:31 043 0 gusting 4 15.6
2020-Aug-08 19:16 325 0 gusting 4 15.6
2020-Aug-08 19:02 335 1 gusting 5 15.6
2020-Aug-08 18:48 016 1 gusting 5 15.6
2020-Aug-08 18:32 140 0 gusting 4 16.7
2020-Aug-08 18:16 281 1 gusting 4 16.1
2020-Aug-08 18:01 239 1 gusting 3 15.6
2020-Aug-08 17:47 165 1 gusting 3 16.1
2020-Aug-08 17:32 126 1 gusting 5 16.1
2020-Aug-08 17:16 169 1 gusting 3 15.0
2020-Aug-08 17:01 140 1 gusting 4 15.0
2020-Aug-08 16:45 200 0 gusting 3 15.0
2020-Aug-08 16:31 161 1 gusting 3 15.0
2020-Aug-08 16:16 194 0 gusting 3 14.4
2020-Aug-08 16:01 193 1 gusting 4 13.9
2020-Aug-08 15:45 227 0 gusting 2 13.9
2020-Aug-08 15:31 118 1 gusting 4 13.3
2020-Aug-08 15:17 184 0 gusting 3 13.3
2020-Aug-08 15:00 184 12.8
2020-Aug-08 14:45 155 1 gusting 3 12.8
2020-Aug-08 14:30 163 0 gusting 2 12.8
2020-Aug-08 14:15 174 0 gusting 2 12.8
2020-Aug-08 14:00 175 0 gusting 2 12.8
2020-Aug-08 13:45 205 1 gusting 3 12.8
2020-Aug-08 13:31 201 1 gusting 4 12.8
2020-Aug-08 13:15 188 1 gusting 2 12.8
2020-Aug-08 13:00 198 1 gusting 3 12.8
2020-Aug-08 12:45 180 1 gusting 3 12.8
2020-Aug-08 12:30 171 0 gusting 2 12.8
2020-Aug-08 12:15 171 0 gusting 2 12.8
2020-Aug-08 12:00 171 0 gusting 1 12.8
2020-Aug-08 11:45 171 0 gusting 2 12.8
2020-Aug-08 11:30 181 1 gusting 2 12.8
2020-Aug-08 11:15 193 1 gusting 3 12.8
2020-Aug-08 11:00 181 1 gusting 4 12.8
2020-Aug-08 10:46 165 1 gusting 3 12.8
2020-Aug-08 10:30 177 1 gusting 4 12.8
2020-Aug-08 10:15 181 1 gusting 3 12.8
2020-Aug-08 10:00 172 1 gusting 2 13.3
2020-Aug-08 09:45 172 0 gusting 2 13.3
2020-Aug-08 09:30 167 1 gusting 2 13.3
2020-Aug-08 09:15 021 13.9
2020-Aug-08 09:01 020 13.9
2020-Aug-08 09:00 020 13.9
2020-Aug-08 08:46 020 13.9
2020-Aug-08 08:31 020 13.9
2020-Aug-08 08:16 343 13.9
2020-Aug-08 08:01 331 13.9
2020-Aug-08 07:46 029 13.9
2020-Aug-08 07:31 041 13.9
2020-Aug-08 07:17 072 13.9
2020-Aug-08 07:01 074 0 gusting 2 13.9
2020-Aug-08 06:46 057 0 gusting 1 13.9
2020-Aug-08 06:32 057 0 gusting 2 13.9
2020-Aug-08 06:16 054 0 gusting 2 13.9
2020-Aug-08 06:01 065 13.9
2020-Aug-08 05:46 056 0 gusting 2 13.9
2020-Aug-08 05:31 049 0 gusting 2 13.9
2020-Aug-08 05:16 050 1 gusting 3 13.9
2020-Aug-08 05:01 041 1 gusting 3 13.9
2020-Aug-08 04:48 037 1 gusting 2 13.9
2020-Aug-08 04:32 038 1 gusting 3 13.3
2020-Aug-08 04:16 042 1 gusting 3 13.9
2020-Aug-08 04:01 035 1 gusting 3 13.9
2020-Aug-08 03:46 013 1 gusting 4 13.9
2020-Aug-08 03:31 360 2 gusting 4 13.9
2020-Aug-08 03:16 038 1 gusting 5 13.9
2020-Aug-08 03:01 024 1 gusting 5 13.9
2020-Aug-08 02:46 023 1 gusting 5 13.9
2020-Aug-08 02:31 021 1 gusting 3 14.4
2020-Aug-08 02:16 031 1 gusting 4 14.4
2020-Aug-08 02:01 017 1 gusting 3 14.4
2020-Aug-08 01:46 046 1 gusting 5 15.0
2020-Aug-08 01:30 032 1 gusting 5 15.0
2020-Aug-08 01:16 028 1 gusting 4 15.0
2020-Aug-08 01:01 024 1 gusting 3 16.1
2020-Aug-08 00:46 040 2 gusting 6 16.1
2020-Aug-08 00:31 036 1 gusting 2 16.7
2020-Aug-08 00:15 017 0 gusting 2 17.8
2020-Aug-08 00:01 360 0 gusting 2 18.3
2020-Aug-07 23:47 193 18.3
2020-Aug-07 23:31 201 18.9
2020-Aug-07 23:16 195 0 gusting 2 18.9
2020-Aug-07 23:01 169 0 gusting 2 18.9
2020-Aug-07 22:47 225 18.9
2020-Aug-07 22:31 005 18.3
2020-Aug-07 22:16 313 0 gusting 3 18.9
2020-Aug-07 22:01 270 0 gusting 3 19.4
2020-Aug-07 21:45 339 2 gusting 6 19.4
2020-Aug-07 21:31 202 1 gusting 4 19.4
2020-Aug-07 21:16 005 2 gusting 5 19.4
2020-Aug-07 21:00 010 1 gusting 3 18.9
2020-Aug-07 20:46 347 0 gusting 4 18.9
2020-Aug-07 20:30 288 2 gusting 4 18.3
2020-Aug-07 20:16 334 0 gusting 5 18.3
2020-Aug-07 20:00 339 0 gusting 7 18.3
2020-Aug-07 19:46 123 1 gusting 6 18.3
2020-Aug-07 19:31 211 3 gusting 6 18.9
2020-Aug-07 19:16 181 3 gusting 6 18.9
2020-Aug-07 19:01 134 2 gusting 6 19.4
2020-Aug-07 18:45 173 3 gusting 7 18.3
2020-Aug-07 18:30 209 3 gusting 6 18.3
2020-Aug-07 18:15 146 0 gusting 3 18.3
2020-Aug-07 18:00 194 1 gusting 6 17.2
2020-Aug-07 17:46 109 0 gusting 6 17.8
2020-Aug-07 17:30 227 1 gusting 5 17.2
2020-Aug-07 17:15 278 2 gusting 7 16.7
2020-Aug-07 17:00 169 2 gusting 6 17.2